Time;durP1;ratioP1;P1;durP2;ratioP2;P2;SDS_P1;SDS_P2;PMS_P1;PMS_P2;Temp;Humidity;BMP_temperature;BMP_pressure;BME280_temperature;BME280_humidity;BME280_pressure;Samples;Min_cycle;Max_cycle;Signal;HPM_P1;HPM_P2
2021/12/02 00:00:39;;;;;;;5.97;4.57;;;;;;;3.78;100.00;94913.06;5082760;28;20217;-86
2021/12/02 00:03:08;;;;;;;7.77;4.33;;;;;;;3.74;100.00;94898.53;5064538;28;20232;-85
2021/12/02 00:05:35;;;;;;;4.93;3.40;;;;;;;3.76;100.00;94896.44;5084655;28;20223;-85
2021/12/02 00:08:03;;;;;;;5.00;3.73;;;;;;;3.73;100.00;94888.91;5070707;28;20204;-85
2021/12/02 00:10:31;;;;;;;6.10;4.03;;;;;;;3.76;100.00;94906.31;5072366;28;20201;-86
2021/12/02 00:12:59;;;;;;;6.57;4.40;;;;;;;3.77;100.00;94905.28;5088860;28;20208;-85
2021/12/02 00:15:32;;;;;;;5.20;4.40;;;;;;;3.74;100.00;94903.06;5079609;28;20198;-86
2021/12/02 00:18:29;;;;;;;4.33;3.70;;;;;;;3.75;100.00;94905.50;5080700;28;20397;-85
2021/12/02 00:21:03;;;;;;;4.30;3.50;;;;;;;3.75;100.00;94905.50;5066420;28;20217;-85
2021/12/02 00:23:35;;;;;;;5.40;3.80;;;;;;;3.76;100.00;94904.47;5079061;28;20208;-85
2021/12/02 00:26:05;;;;;;;5.33;3.63;;;;;;;3.77;100.00;94897.25;5065531;28;20209;-86
2021/12/02 00:28:33;;;;;;;4.27;3.53;;;;;;;3.76;100.00;94896.44;5063448;28;20280;-86
2021/12/02 00:31:03;;;;;;;3.17;2.87;;;;;;;3.80;100.00;94918.19;5068825;28;20205;-86
2021/12/02 00:33:33;;;;;;;4.93;4.20;;;;;;;3.75;100.00;94904.69;5076898;28;20197;-86
2021/12/02 00:36:02;;;;;;;5.60;4.33;;;;;;;3.68;100.00;94902.09;5058039;28;20270;-86
2021/12/02 00:38:29;;;;;;;6.97;4.20;;;;;;;3.69;100.00;94901.06;5066067;28;20211;-86
2021/12/02 00:40:56;;;;;;;4.67;3.87;;;;;;;3.71;100.00;94904.31;5064060;28;20232;-86
2021/12/02 00:43:24;;;;;;;6.13;4.60;;;;;;;3.72;100.00;94891.78;5067968;28;20205;-86
2021/12/02 00:45:51;;;;;;;5.30;4.03;;;;;;;3.74;100.00;94897.72;5064443;28;20236;-86
2021/12/02 00:48:19;;;;;;;6.57;4.27;;;;;;;3.71;100.00;94892.81;5065889;28;20215;-86
2021/12/02 00:50:49;;;;;;;8.40;4.60;;;;;;;3.67;100.00;94886.28;5070022;28;20208;-86
2021/12/02 00:53:20;;;;;;;5.93;4.47;;;;;;;3.67;100.00;94897.78;5083435;28;20209;-86
2021/12/02 00:55:49;;;;;;;6.67;4.53;;;;;;;3.65;100.00;94889.22;5064537;28;20227;-86
2021/12/02 00:58:20;;;;;;;6.33;4.37;;;;;;;3.64;100.00;94882.22;5067822;28;20299;-87
2021/12/02 01:00:50;;;;;;;6.03;4.47;;;;;;;3.65;100.00;94888.38;5068004;28;20296;-86
2021/12/02 01:03:20;;;;;;;6.90;4.87;;;;;;;3.65;100.00;94885.72;5066241;28;20275;-86
2021/12/02 01:05:48;;;;;;;5.60;4.73;;;;;;;3.64;100.00;94881.41;5085241;28;20208;-86
2021/12/02 01:08:15;;;;;;;5.97;4.90;;;;;;;3.64;100.00;94889.44;5067587;28;20352;-86
2021/12/02 01:10:42;;;;;;;7.20;4.93;;;;;;;3.63;100.00;94896.63;5087322;28;20211;-86
2021/12/02 01:13:10;;;;;;;6.37;4.70;;;;;;;3.66;100.00;94893.47;5064721;28;20271;-86
2021/12/02 01:15:37;;;;;;;4.37;3.60;;;;;;;3.67;100.00;94894.28;5068149;28;20282;-86
2021/12/02 01:18:04;;;;;;;5.20;4.30;;;;;;;3.65;100.00;94891.88;5074183;28;20209;-86
2021/12/02 01:20:33;;;;;;;7.10;3.63;;;;;;;3.63;100.00;94890.47;5066465;28;20221;-87
2021/12/02 01:23:02;;;;;;;3.13;2.50;;;;;;;3.60;100.00;94878.38;5064748;28;20209;-86
2021/12/02 01:25:31;;;;;;;6.73;4.40;;;;;;;3.63;100.00;94875.25;5086377;28;20199;-86
2021/12/02 01:27:59;;;;;;;6.93;5.17;;;;;;;3.57;100.00;94875.34;5068632;28;20272;-86
2021/12/02 01:30:27;;;;;;;7.33;5.47;;;;;;;3.54;100.00;94886.44;5077457;28;20210;-85
2021/12/02 01:33:01;;;;;;;7.00;5.70;;;;;;;3.50;100.00;94885.25;5058850;28;20297;-86
2021/12/02 01:35:29;;;;;;;8.03;5.33;;;;;;;3.49;100.00;94888.97;5067042;28;20212;-86
2021/12/02 01:37:57;;;;;;;5.50;4.63;;;;;;;3.46;100.00;94890.22;5073395;28;20254;-85
2021/12/02 01:40:25;;;;;;;7.47;3.67;;;;;;;3.43;100.00;94875.47;5061030;28;20213;-86
2021/12/02 01:42:55;;;;;;;5.30;4.23;;;;;;;3.46;100.00;94874.22;5064271;28;20197;-86
2021/12/02 01:45:26;;;;;;;5.80;4.70;;;;;;;3.43;100.00;94880.81;5062135;28;20220;-86
2021/12/02 01:47:55;;;;;;;8.23;5.90;;;;;;;3.40;100.00;94875.91;5065640;28;20262;-86
2021/12/02 01:50:24;;;;;;;8.87;5.30;;;;;;;3.46;100.00;94886.75;5064623;28;20201;-86
2021/12/02 01:52:58;;;;;;;8.90;5.10;;;;;;;3.44;100.00;94881.63;5064434;28;20212;-85
2021/12/02 01:55:27;;;;;;;6.43;4.70;;;;;;;3.46;100.00;94884.91;5065775;28;20208;-86
2021/12/02 01:58:00;;;;;;;5.50;3.87;;;;;;;3.45;100.00;94872.59;5076669;28;20230;-86
2021/12/02 02:00:32;;;;;;;4.47;3.50;;;;;;;3.48;100.00;94872.16;5085846;28;20228;-85
2021/12/02 02:03:02;;;;;;;4.57;3.63;;;;;;;3.46;100.00;94873.41;5067233;28;20229;-86
2021/12/02 02:05:30;;;;;;;5.30;3.90;;;;;;;3.51;100.00;94879.69;5064289;28;20196;-86
2021/12/02 02:08:03;;;;;;;4.87;3.70;;;;;;;3.51;100.00;94882.38;5054861;28;20202;-86
2021/12/02 02:10:33;;;;;;;3.07;2.60;;;;;;;3.55;100.00;94883.56;5061967;28;20204;-86
2021/12/02 02:13:04;;;;;;;4.03;2.50;;;;;;;3.54;100.00;94884.59;5066801;28;20258;-85
2021/12/02 02:15:32;;;;;;;2.77;2.10;;;;;;;3.51;100.00;94874.34;5062934;28;20212;-86
2021/12/02 02:18:04;;;;;;;3.00;2.30;;;;;;;3.55;100.00;94886.25;5060337;28;20228;-85
2021/12/02 02:20:40;;;;;;;5.73;3.80;;;;;;;3.51;100.00;94876.22;5085802;28;20213;-85
2021/12/02 02:23:11;;;;;;;7.87;4.20;;;;;;;3.48;100.00;94874.00;5068723;28;20205;-86
2021/12/02 02:25:39;;;;;;;5.57;4.23;;;;;;;3.41;100.00;94874.88;5060489;28;20204;-86
2021/12/02 02:28:07;;;;;;;5.43;4.20;;;;;;;3.37;100.00;94862.22;5063836;28;20201;-85
2021/12/02 02:30:34;;;;;;;4.17;3.67;;;;;;;3.40;100.00;94875.13;5063175;28;20205;-86
2021/12/02 02:33:01;;;;;;;5.77;3.63;;;;;;;3.38;100.00;94869.19;5066308;28;20211;-86
2021/12/02 02:35:29;;;;;;;4.97;3.03;;;;;;;3.46;100.00;94868.88;5071165;28;20192;-85
2021/12/02 02:37:59;;;;;;;3.90;2.93;;;;;;;3.39;100.00;94860.16;5059139;28;20236;-85
2021/12/02 02:40:27;;;;;;;5.27;3.30;;;;;;;3.43;100.00;94864.00;5066585;28;20228;-85
2021/12/02 02:42:59;;;;;;;3.47;3.00;;;;;;;3.38;100.00;94861.19;5070579;28;20194;-85
2021/12/02 02:45:27;;;;;;;5.37;3.33;;;;;;;3.45;100.00;94867.25;5082981;28;20225;-85
2021/12/02 02:47:54;;;;;;;5.50;2.90;;;;;;;3.53;100.00;94869.63;5076956;28;20265;-85
2021/12/02 02:50:21;;;;;;;3.40;2.37;;;;;;;3.56;100.00;94863.84;5063520;28;20213;-85
2021/12/02 02:52:48;;;;;;;4.00;2.50;;;;;;;3.50;100.00;94862.06;5065794;28;20197;-86
2021/12/02 02:55:22;;;;;;;2.87;2.40;;;;;;;3.48;100.00;94861.47;5063408;28;20278;-85
2021/12/02 02:57:56;;;;;;;6.20;2.30;;;;;;;3.43;100.00;94845.31;5067316;28;20203;-85
2021/12/02 03:00:30;;;;;;;3.03;2.30;;;;;;;3.44;100.00;94844.28;5070689;28;20301;-85
2021/12/02 03:03:03;;;;;;;3.47;3.00;;;;;;;3.47;100.00;94859.84;5069767;28;20291;-86
2021/12/02 03:05:38;;;;;;;4.67;3.33;;;;;;;3.46;100.00;94852.06;5062908;28;20193;-85
2021/12/02 03:08:14;;;;;;;4.30;3.30;;;;;;;3.45;100.00;94853.09;5066834;28;20197;-85
2021/12/02 03:10:45;;;;;;;3.57;3.00;;;;;;;3.48;100.00;94855.34;5068501;28;20201;-86
2021/12/02 03:13:18;;;;;;;5.20;2.30;;;;;;;3.45;100.00;94861.91;5071340;28;20232;-86
2021/12/02 03:18:31;;;;;;;3.70;2.97;;;;;;;3.42;100.00;94855.16;5057247;28;20205;-86
2021/12/02 03:20:58;;;;;;;4.30;3.07;;;;;;;3.41;100.00;94850.84;5066025;28;20267;-86
2021/12/02 03:23:25;;;;;;;4.03;3.30;;;;;;;3.42;100.00;94855.16;5070702;28;20208;-85
2021/12/02 03:25:54;;;;;;;4.83;3.10;;;;;;;3.45;100.00;94851.25;5066049;28;20277;-85
2021/12/02 03:28:21;;;;;;;3.53;2.60;;;;;;;3.44;100.00;94857.63;5074425;28;20246;-86
2021/12/02 03:30:48;;;;;;;3.97;3.03;;;;;;;3.41;100.00;94852.72;5070277;28;20209;-85
2021/12/02 03:33:15;;;;;;;2.90;2.60;;;;;;;3.38;100.00;94839.84;5071129;28;20546;-86
2021/12/02 03:35:42;;;;;;;2.80;2.50;;;;;;;3.36;100.00;94837.38;5076933;28;20206;-86
2021/12/02 03:38:09;;;;;;;5.10;3.30;;;;;;;3.40;100.00;94837.78;5061671;28;20229;-85
2021/12/02 03:40:36;;;;;;;4.03;3.60;;;;;;;3.41;100.00;94839.38;5076429;28;20223;-85
2021/12/02 03:43:05;;;;;;;3.53;3.17;;;;;;;3.34;100.00;94834.13;5073263;28;20244;-86
2021/12/02 03:45:37;;;;;;;3.60;3.20;;;;;;;3.36;100.00;94831.22;5088079;28;20284;-86
2021/12/02 03:48:04;;;;;;;3.40;3.03;;;;;;;3.40;100.00;94832.44;5067336;28;20254;-86
2021/12/02 03:50:31;;;;;;;2.80;2.47;;;;;;;3.44;100.00;94833.59;5084454;28;20200;-85
2021/12/02 03:52:59;;;;;;;3.00;2.43;;;;;;;3.37;100.00;94823.00;5060528;28;20289;-86
2021/12/02 03:55:26;;;;;;;3.23;2.60;;;;;;;3.38;100.00;94821.16;5063344;28;20299;-85
2021/12/02 03:57:53;;;;;;;3.37;2.83;;;;;;;3.40;100.00;94827.88;5069663;28;20204;-86
2021/12/02 04:00:21;;;;;;;3.27;2.50;;;;;;;3.44;100.00;94830.94;5084411;28;20217;-85
2021/12/02 04:02:48;;;;;;;5.30;2.70;;;;;;;3.43;100.00;94821.28;5087192;28;20240;-85
2021/12/02 04:05:16;;;;;;;4.20;2.97;;;;;;;3.38;100.00;94829.97;5069601;28;20301;-86
2021/12/02 04:07:43;;;;;;;4.83;3.40;;;;;;;3.34;100.00;94835.97;5068415;28;20200;-85
2021/12/02 04:10:11;;;;;;;4.73;3.10;;;;;;;3.33;100.00;94837.81;5067548;28;20207;-85
2021/12/02 04:12:49;;;;;;;4.20;3.20;;;;;;;3.27;100.00;94832.56;5084161;28;20259;-85
2021/12/02 04:15:22;;;;;;;4.97;3.50;;;;;;;3.38;100.00;94839.84;5061147;28;20228;-86
2021/12/02 04:17:51;;;;;;;6.00;3.67;;;;;;;3.39;100.00;94830.81;5067644;28;20459;-86
2021/12/02 04:20:20;;;;;;;5.07;2.97;;;;;;;3.43;100.00;94826.63;5057028;28;20217;-85
2021/12/02 04:22:48;;;;;;;3.40;2.47;;;;;;;3.42;100.00;94841.81;5067020;28;20213;-85
2021/12/02 04:25:17;;;;;;;3.53;2.80;;;;;;;3.44;100.00;94846.94;5061454;28;20218;-86
2021/12/02 04:27:45;;;;;;;3.13;2.67;;;;;;;3.49;100.00;94835.63;5068519;28;20202;-86
2021/12/02 04:30:18;;;;;;;2.40;2.20;;;;;;;3.52;100.00;94841.31;5069316;28;20205;-85
2021/12/02 04:32:45;;;;;;;3.20;2.70;;;;;;;3.50;100.00;94838.03;5057602;28;20221;-86
2021/12/02 04:35:14;;;;;;;3.13;2.40;;;;;;;3.49;100.00;94836.41;5068397;28;20264;-86
2021/12/02 04:37:44;;;;;;;2.60;2.10;;;;;;;3.48;100.00;94831.31;5063832;28;20233;-86
2021/12/02 04:40:15;;;;;;;2.60;2.40;;;;;;;3.38;100.00;94834.50;5059322;28;20197;-86
2021/12/02 04:42:42;;;;;;;3.83;3.00;;;;;;;3.36;100.00;94845.38;5070200;28;20208;-86
2021/12/02 04:45:10;;;;;;;3.47;2.80;;;;;;;3.43;100.00;94837.31;5081604;28;20320;-85
2021/12/02 04:47:38;;;;;;;5.20;3.13;;;;;;;3.43;100.00;94834.63;5068805;28;20213;-85
2021/12/02 04:50:06;;;;;;;4.33;3.13;;;;;;;3.42;100.00;94825.81;5058942;28;20193;-85
2021/12/02 04:52:36;;;;;;;4.60;3.10;;;;;;;3.39;100.00;94836.13;5068023;28;20205;-85
2021/12/02 04:55:03;;;;;;;5.73;3.07;;;;;;;3.44;100.00;94844.28;5060320;28;20207;-85
2021/12/02 04:57:30;;;;;;;4.30;3.70;;;;;;;3.41;100.00;94842.03;5065770;28;20209;-86
2021/12/02 04:59:58;;;;;;;5.43;3.60;;;;;;;3.41;100.00;94832.19;5066136;28;20208;-86
2021/12/02 05:02:25;;;;;;;6.17;3.47;;;;;;;3.44;100.00;94833.59;5060673;28;20224;-86
2021/12/02 05:04:52;;;;;;;5.37;3.40;;;;;;;3.45;100.00;94839.75;5074243;28;20301;-86
2021/12/02 05:07:19;;;;;;;4.13;3.17;;;;;;;3.47;100.00;94843.84;5061625;28;20207;-85
2021/12/02 05:09:47;;;;;;;4.23;3.50;;;;;;;3.47;100.00;94841.16;5069094;28;20303;-85
2021/12/02 05:12:14;;;;;;;7.13;3.47;;;;;;;3.47;100.00;94851.03;5071445;28;20229;-86
2021/12/02 05:14:41;;;;;;;4.63;4.00;;;;;;;3.49;100.00;94855.09;5062616;28;20249;-85
2021/12/02 05:17:09;;;;;;;4.17;3.50;;;;;;;3.44;100.00;94846.94;5064190;28;20202;-85
2021/12/02 05:19:35;;;;;;;4.03;3.43;;;;;;;3.43;100.00;94845.31;5083708;28;20197;-86
2021/12/02 05:22:03;;;;;;;5.73;4.83;;;;;;;3.48;100.00;94845.47;5068834;28;20229;-85
2021/12/02 05:24:30;;;;;;;8.07;5.93;;;;;;;3.47;100.00;94835.03;5084497;28;20200;-84
2021/12/02 05:26:59;;;;;;;7.37;5.40;;;;;;;3.48;100.00;94831.31;5066946;28;20227;-85
2021/12/02 05:29:26;;;;;;;5.20;4.33;;;;;;;3.46;100.00;94839.53;5083899;28;20237;-86
2021/12/02 05:31:53;;;;;;;13.07;9.20;;;;;;;3.40;100.00;94843.91;5068943;28;20197;-85
2021/12/02 05:34:20;;;;;;;6.93;5.07;;;;;;;3.37;100.00;94841.69;5084512;28;20205;-85
2021/12/02 05:36:47;;;;;;;7.37;4.40;;;;;;;3.36;100.00;94844.56;5064417;28;20201;-86
2021/12/02 05:39:14;;;;;;;9.37;6.20;;;;;;;3.33;100.00;94851.16;5059947;28;20240;-86
2021/12/02 05:41:42;;;;;;;5.73;4.43;;;;;;;3.36;100.00;94849.91;5079969;28;20213;-86
2021/12/02 05:44:11;;;;;;;44.77;21.27;;;;;;;3.39;100.00;94849.47;5062938;28;20268;-86
2021/12/02 05:46:38;;;;;;;23.93;11.67;;;;;;;3.43;100.00;94847.97;5081391;28;20204;-85
2021/12/02 05:49:05;;;;;;;5.90;4.20;;;;;;;3.45;100.00;94848.56;5056682;28;20209;-85
2021/12/02 05:51:32;;;;;;;6.43;5.13;;;;;;;3.41;100.00;94844.72;5064969;28;20235;-85
2021/12/02 05:54:00;;;;;;;7.93;4.80;;;;;;;3.42;100.00;94841.81;5070655;28;20201;-85
2021/12/02 05:56:27;;;;;;;7.50;5.50;;;;;;;3.48;100.00;94844.66;5063572;28;20216;-85
2021/12/02 05:58:54;;;;;;;6.07;4.30;;;;;;;3.50;100.00;94842.56;5080010;28;20204;-85
2021/12/02 06:01:23;;;;;;;5.83;4.47;;;;;;;3.45;100.00;94837.91;5066108;28;20223;-86
2021/12/02 06:03:51;;;;;;;5.93;4.17;;;;;;;3.49;100.00;94844.41;5065907;28;20572;-85
2021/12/02 06:06:18;;;;;;;7.53;5.30;;;;;;;3.43;100.00;94838.13;5087100;28;20261;-85
2021/12/02 06:08:46;;;;;;;8.10;6.00;;;;;;;3.49;100.00;94827.63;5072544;28;20228;-85
2021/12/02 06:11:13;;;;;;;7.20;6.03;;;;;;;3.49;100.00;94823.06;5069063;28;20201;-86
2021/12/02 06:13:41;;;;;;;7.33;5.70;;;;;;;3.48;100.00;94815.31;5071294;28;20395;-86
2021/12/02 06:16:09;;;;;;;7.67;5.90;;;;;;;3.50;100.00;94819.34;5089805;28;20211;-85
2021/12/02 06:18:37;;;;;;;8.73;5.70;;;;;;;3.54;100.00;94811.75;5060364;28;20208;-85
2021/12/02 06:21:04;;;;;;;7.83;5.73;;;;;;;3.54;100.00;94819.75;5059237;28;20221;-85
2021/12/02 06:23:31;;;;;;;8.13;6.27;;;;;;;3.60;100.00;94827.66;5071717;28;20197;-86
2021/12/02 06:25:58;;;;;;;9.57;6.83;;;;;;;3.53;100.00;94820.78;5073664;28;20212;-85
2021/12/02 06:28:26;;;;;;;8.10;5.70;;;;;;;3.49;100.00;94814.28;5066739;28;20296;-86
2021/12/02 06:30:53;;;;;;;8.83;5.77;;;;;;;3.47;100.00;94805.66;5064706;28;20202;-85
2021/12/02 06:33:21;;;;;;;9.90;5.30;;;;;;;3.48;100.00;94799.31;5066379;28;20256;-84
2021/12/02 06:35:49;;;;;;;7.23;5.60;;;;;;;3.52;100.00;94803.13;5067515;28;20211;-85
2021/12/02 06:38:16;;;;;;;8.23;6.00;;;;;;;3.49;100.00;94807.06;5086482;28;20255;-85
2021/12/02 06:40:45;;;;;;;7.07;5.50;;;;;;;3.49;100.00;94812.38;5070901;28;20201;-85
2021/12/02 06:43:14;;;;;;;7.90;5.57;;;;;;;3.48;100.00;94818.78;5089426;28;20205;-85
2021/12/02 06:45:41;;;;;;;6.67;5.70;;;;;;;3.47;100.00;94811.00;5067915;28;20210;-85
2021/12/02 06:48:08;;;;;;;7.57;6.40;;;;;;;3.51;100.00;94813.00;5063573;28;20205;-85
2021/12/02 06:50:37;;;;;;;7.73;5.87;;;;;;;3.54;100.00;94817.88;5073713;28;20235;-85
2021/12/02 06:53:06;;;;;;;10.67;6.73;;;;;;;3.48;100.00;94810.78;5067279;28;20221;-86
2021/12/02 06:55:34;;;;;;;10.20;6.77;;;;;;;3.47;100.00;94809.16;5080426;28;20209;-85
2021/12/02 06:58:01;;;;;;;10.40;6.33;;;;;;;3.41;100.00;94812.69;5063393;28;20223;-86
2021/12/02 07:00:28;;;;;;;9.23;6.90;;;;;;;3.40;100.00;94816.44;5085567;28;20204;-87
2021/12/02 07:02:55;;;;;;;8.23;6.67;;;;;;;3.42;100.00;94819.66;5067277;28;20240;-85
2021/12/02 07:05:23;;;;;;;8.20;6.30;;;;;;;3.42;100.00;94806.31;5067892;28;20283;-86
2021/12/02 07:07:50;;;;;;;7.83;4.70;;;;;;;3.43;100.00;94811.44;5083978;28;20228;-86
2021/12/02 07:10:22;;;;;;;5.83;4.90;;;;;;;3.43;100.00;94821.28;5070703;28;20227;-86
2021/12/02 07:12:51;;;;;;;7.67;5.50;;;;;;;3.36;100.00;94818.72;5066639;28;20217;-86
2021/12/02 07:15:20;;;;;;;9.77;6.50;;;;;;;3.33;100.00;94821.00;5067380;28;20213;-86
2021/12/02 07:17:51;;;;;;;11.87;6.53;;;;;;;3.36;100.00;94831.22;5066571;28;20211;-86
2021/12/02 07:20:18;;;;;;;7.07;5.60;;;;;;;3.35;100.00;94833.09;5088716;28;20236;-85
2021/12/02 07:22:45;;;;;;;8.17;6.67;;;;;;;3.37;100.00;94832.88;5081343;28;20257;-85
2021/12/02 07:25:13;;;;;;;8.27;5.53;;;;;;;3.37;100.00;94830.19;5073566;28;20207;-85
2021/12/02 07:27:42;;;;;;;6.20;5.13;;;;;;;3.35;100.00;94834.94;5064495;28;20288;-86
2021/12/02 07:30:10;;;;;;;6.53;5.20;;;;;;;3.33;100.00;94834.34;5065672;28;20216;-85
2021/12/02 07:32:40;;;;;;;7.57;6.60;;;;;;;3.38;100.00;94832.66;5069349;28;20296;-86
2021/12/02 07:35:10;;;;;;;8.37;6.63;;;;;;;3.38;100.00;94834.50;5067897;28;20329;-85
2021/12/02 07:37:38;;;;;;;10.17;6.50;;;;;;;3.42;100.00;94843.69;5060755;28;20228;-86
2021/12/02 07:40:06;;;;;;;7.87;6.33;;;;;;;3.42;100.00;94831.16;5068969;28;20206;-86
2021/12/02 07:42:33;;;;;;;8.97;6.27;;;;;;;3.51;100.00;94841.53;5064332;28;20228;-87
2021/12/02 07:45:02;;;;;;;8.87;6.27;;;;;;;3.53;100.00;94840.28;5062606;28;20228;-86
2021/12/02 07:47:29;;;;;;;7.90;5.87;;;;;;;3.54;100.00;94831.22;5055459;28;20216;-86
2021/12/02 07:49:56;;;;;;;6.20;5.27;;;;;;;3.55;100.00;94835.53;5075762;28;20233;-86
2021/12/02 07:52:26;;;;;;;7.47;4.93;;;;;;;3.58;100.00;94843.06;5069218;28;20197;-86
2021/12/02 07:54:56;;;;;;;9.00;6.03;;;;;;;3.61;100.00;94844.50;5059569;28;20307;-86
2021/12/02 07:57:23;;;;;;;8.60;5.57;;;;;;;3.66;100.00;94841.94;5068950;28;20208;-86
2021/12/02 07:59:51;;;;;;;10.23;6.90;;;;;;;3.69;100.00;94850.34;5065374;28;20286;-86
2021/12/02 08:02:19;;;;;;;14.40;7.17;;;;;;;3.67;100.00;94841.72;5025365;28;1252730;-86
2021/12/02 08:04:47;;;;;;;11.17;6.90;;;;;;;3.70;100.00;94851.16;5068521;28;20201;-86
2021/12/02 08:07:14;;;;;;;13.60;7.87;;;;;;;3.71;100.00;94855.47;5084881;28;20203;-86
2021/12/02 08:09:41;;;;;;;10.77;7.37;;;;;;;3.70;100.00;94859.97;5067990;28;20220;-86
2021/12/02 08:12:09;;;;;;;12.87;8.23;;;;;;;3.73;100.00;94861.41;5087008;28;20223;-85
2021/12/02 08:14:36;;;;;;;13.43;7.60;;;;;;;3.75;100.00;94862.78;5071431;28;20196;-87
2021/12/02 08:17:03;;;;;;;12.23;6.70;;;;;;;3.76;100.00;94868.94;5068590;28;20275;-86
2021/12/02 08:19:32;;;;;;;10.07;6.90;;;;;;;3.69;100.00;94858.34;5075844;28;20204;-86
2021/12/02 08:21:59;;;;;;;11.20;6.70;;;;;;;3.75;100.00;94862.78;5063620;28;20282;-85
2021/12/02 08:24:27;;;;;;;12.00;6.53;;;;;;;3.79;100.00;94865.81;5062149;28;20219;-87
2021/12/02 08:26:54;;;;;;;10.67;6.50;;;;;;;3.79;100.00;94861.31;5085297;28;20211;-85
2021/12/02 08:29:22;;;;;;;10.97;6.87;;;;;;;3.86;100.00;94873.75;5060419;28;20281;-85
2021/12/02 08:31:49;;;;;;;7.53;5.67;;;;;;;3.87;100.00;94876.19;5065009;28;20305;-86
2021/12/02 08:34:17;;;;;;;9.83;5.50;;;;;;;3.87;100.00;94873.53;5083685;28;20217;-86
2021/12/02 08:36:49;;;;;;;8.37;6.10;;;;;;;3.86;100.00;94868.41;5061887;28;20202;-86
2021/12/02 08:39:21;;;;;;;8.00;5.87;;;;;;;3.86;100.00;94874.56;5070346;28;20244;-86
2021/12/02 08:41:49;;;;;;;4.53;3.03;;;;;;;3.90;100.00;94866.94;5066755;28;20302;-86
2021/12/02 08:44:17;;;;;;;4.20;1.70;;;;;;;3.84;100.00;94870.47;5054882;28;20221;-86
2021/12/02 08:46:44;;;;;;;1.87;1.20;;;;;;;3.73;100.00;94859.53;5070612;28;20295;-86
2021/12/02 08:49:11;;;;;;;1.10;1.00;;;;;;;3.72;100.00;94868.59;5067322;28;20205;-85
2021/12/02 08:51:39;;;;;;;2.10;1.37;;;;;;;3.72;100.00;94871.25;5066400;28;20291;-86
2021/12/02 08:54:07;;;;;;;1.43;1.20;;;;;;;3.71;100.00;94864.28;5069742;28;20201;-86
2021/12/02 08:56:35;;;;;;;1.20;1.10;;;;;;;3.69;100.00;94862.88;5085360;28;20199;-86
2021/12/02 08:59:02;;;;;;;3.97;1.60;;;;;;;3.67;100.00;94854.25;5067209;28;20268;-86
2021/12/02 09:01:29;;;;;;;3.17;1.60;;;;;;;3.75;100.00;94867.31;5067120;28;20300;-86
2021/12/02 09:03:57;;;;;;;2.97;1.27;;;;;;;3.78;100.00;94866.88;5058840;28;20320;-86
2021/12/02 09:06:25;;;;;;;2.33;1.40;;;;;;;3.80;100.00;94865.63;5081889;28;20197;-86
2021/12/02 09:08:54;;;;;;;3.80;1.60;;;;;;;3.86;100.00;94868.41;5067859;28;20239;-86
2021/12/02 09:11:23;;;;;;;2.63;1.60;;;;;;;3.85;100.00;94864.09;5071122;28;20204;-86
2021/12/02 09:13:51;;;;;;;2.80;1.67;;;;;;;3.88;100.00;94869.00;5059580;28;20296;-86
2021/12/02 09:16:18;;;;;;;1.60;1.50;;;;;;;3.93;100.00;94874.47;5068391;28;20241;-86
2021/12/02 09:18:46;;;;;;;3.17;1.40;;;;;;;3.92;100.00;94867.50;5069795;28;20194;-86
2021/12/02 09:21:13;;;;;;;1.27;1.17;;;;;;;3.99;100.00;94877.09;5062775;28;20211;-86
2021/12/02 09:23:40;;;;;;;5.17;1.60;;;;;;;3.99;100.00;94878.94;5081785;28;20232;-86
2021/12/02 09:26:07;;;;;;;1.60;1.20;;;;;;;4.04;100.00;94879.88;5073312;28;20196;-85
2021/12/02 09:28:36;;;;;;;1.97;1.30;;;;;;;4.03;100.00;94877.44;5064924;28;20230;-86
2021/12/02 09:31:03;;;;;;;2.90;1.40;;;;;;;4.07;100.00;94870.63;5064921;28;20215;-86
2021/12/02 09:33:30;;;;;;;3.53;1.30;;;;;;;4.12;100.00;94879.56;5065731;28;20205;-86
2021/12/02 09:35:57;;;;;;;2.10;1.27;;;;;;;4.16;100.00;94879.94;5066677;28;20223;-86
2021/12/02 09:38:25;;;;;;;2.00;1.13;;;;;;;4.10;100.00;94875.47;5060056;28;20208;-85
2021/12/02 09:40:53;;;;;;;2.03;1.80;;;;;;;4.14;100.00;94866.00;5066955;28;20244;-85
2021/12/02 09:43:20;;;;;;;2.97;1.60;;;;;;;4.19;100.00;94853.56;5066510;28;20217;-86
2021/12/02 09:45:48;;;;;;;5.33;2.03;;;;;;;4.27;100.00;94854.28;5078924;28;20237;-87
2021/12/02 09:48:16;;;;;;;9.80;5.17;;;;;;;4.31;100.00;94856.31;5059303;28;20205;-86
2021/12/02 09:50:53;;;;;;;4.27;2.20;;;;;;;4.39;100.00;94857.84;5081310;28;20223;-85
2021/12/02 09:53:24;;;;;;;3.20;1.13;;;;;;;4.38;100.00;94857.00;5065134;28;20215;-86
2021/12/02 09:55:56;;;;;;;1.30;1.20;;;;;;;4.37;100.00;94844.69;5063219;28;20208;-86
2021/12/02 09:58:26;;;;;;;2.37;1.30;;;;;;;4.47;100.00;94855.66;5066888;28;20234;-86
2021/12/02 10:00:59;;;;;;;1.73;1.50;;;;;;;4.49;100.00;94842.88;5066659;28;20235;-86
2021/12/02 10:03:32;;;;;;;2.93;1.50;;;;;;;4.53;100.00;94852.06;5065918;28;20309;-87
2021/12/02 10:06:04;;;;;;;1.47;1.30;;;;;;;4.61;100.00;94850.09;5076130;28;20231;-86
2021/12/02 10:08:35;;;;;;;1.60;1.43;;;;;;;4.61;100.00;94842.06;5064195;28;20273;-86
2021/12/02 10:11:05;;;;;;;2.27;1.40;;;;;;;4.61;100.00;94850.09;5063451;28;20205;-86
2021/12/02 10:13:36;;;;;;;3.30;1.37;;;;;;;4.60;100.00;94840.44;5064979;28;20204;-86
2021/12/02 10:16:10;;;;;;;4.60;1.50;;;;;;;4.67;100.00;94841.97;5069634;28;20219;-86
2021/12/02 10:18:48;;;;;;;1.77;1.40;;;;;;;4.75;100.00;94841.66;5065853;28;20205;-86
2021/12/02 10:21:21;;;;;;;7.57;1.40;;;;;;;4.84;100.00;94839.44;5058146;28;20225;-86
2021/12/02 10:23:48;;;;;;;2.23;1.30;;;;;;;4.83;100.00;94832.47;5069630;28;20235;-86
2021/12/02 10:26:18;;;;;;;2.57;1.77;;;;;;;4.75;100.00;94822.94;5068281;28;20292;-86
2021/12/02 10:28:47;;;;;;;3.03;2.30;;;;;;;4.76;100.00;94821.88;5064736;28;20205;-86
2021/12/02 10:31:23;;;;;;;2.57;2.20;;;;;;;4.76;100.00;94811.19;5070741;28;20209;-86
2021/12/02 10:33:54;;;;;;;2.83;1.73;;;;;;;4.75;100.00;94809.56;5065964;28;20212;-87
2021/12/02 10:36:32;;;;;;;3.67;1.80;;;;;;;4.79;100.00;94809.88;5062671;28;20216;-86
2021/12/02 10:39:01;;;;;;;5.03;1.93;;;;;;;4.85;100.00;94811.63;5080490;28;20200;-87
2021/12/02 10:41:30;;;;;;;2.10;1.53;;;;;;;4.82;100.00;94809.44;5062783;28;20204;-86
2021/12/02 10:44:15;;;;;;;3.10;1.60;;;;;;;4.88;100.00;94813.84;5081280;28;20408;-86
2021/12/02 10:46:55;;;;;;;3.23;1.60;;;;;;;4.93;100.00;94800.63;5062023;28;20193;-86
2021/12/02 10:49:23;;;;;;;6.50;2.17;;;;;;;4.98;100.00;94787.34;5061083;28;20224;-85
2021/12/02 10:51:51;;;;;;;2.23;1.60;;;;;;;5.09;100.00;94788.38;5068597;28;20227;-86
2021/12/02 10:54:20;;;;;;;2.07;1.60;;;;;;;5.04;100.00;94791.75;5066327;28;20213;-85
2021/12/02 10:56:50;;;;;;;2.10;1.80;;;;;;;4.96;100.00;94792.09;5080370;28;20213;-85
2021/12/02 10:59:25;;;;;;;2.60;1.80;;;;;;;4.88;100.00;94792.47;5066596;28;20237;-86
2021/12/02 11:01:54;;;;;;;2.57;1.90;;;;;;;4.87;100.00;94780.13;5066868;28;20208;-86
2021/12/02 11:04:21;;;;;;;6.20;2.20;;;;;;;4.88;100.00;94779.09;5069469;28;20215;-87
2021/12/02 11:06:50;;;;;;;3.53;2.00;;;;;;;4.90;100.00;94771.66;5065200;28;20208;-85
2021/12/02 11:09:29;;;;;;;2.57;2.00;;;;;;;4.82;100.00;94766.66;5068751;28;20212;-86
2021/12/02 11:12:11;;;;;;;2.80;1.87;;;;;;;4.78;100.00;94755.59;5067361;28;20216;-85
2021/12/02 11:14:43;;;;;;;1.97;1.73;;;;;;;4.85;100.00;94760.81;5075618;28;20201;-85
2021/12/02 11:17:14;;;;;;;4.30;1.83;;;;;;;4.83;100.00;94765.63;5069210;28;20225;-85
2021/12/02 11:19:44;;;;;;;4.87;2.27;;;;;;;4.87;100.00;94756.06;5067723;28;20216;-86
2021/12/02 11:22:16;;;;;;;4.23;2.10;;;;;;;4.91;100.00;94750.03;5078465;28;20213;-85
2021/12/02 11:24:45;;;;;;;2.30;1.90;;;;;;;4.89;100.00;94741.41;5072486;28;20287;-86
2021/12/02 11:27:16;;;;;;;2.90;1.90;;;;;;;4.97;100.00;94750.13;5071618;28;20208;-86
2021/12/02 11:29:58;;;;;;;5.10;2.27;;;;;;;5.05;100.00;94745.22;5061462;28;20291;-86
2021/12/02 11:32:34;;;;;;;2.30;1.90;;;;;;;5.06;100.00;94738.03;5084368;28;20201;-86
2021/12/02 11:35:12;;;;;;;2.33;1.93;;;;;;;5.03;100.00;94730.47;5072180;28;20217;-85
2021/12/02 11:37:43;;;;;;;2.57;1.57;;;;;;;5.07;100.00;94732.44;5068451;28;20209;-86
2021/12/02 11:40:13;;;;;;;2.37;1.47;;;;;;;5.12;100.00;94727.19;5063980;28;20209;-86
2021/12/02 11:42:41;;;;;;;1.80;1.30;;;;;;;5.12;100.00;94723.69;5063752;28;20227;-86